Time;durP1;ratioP1;P1;durP2;ratioP2;P2;SDS_P1;SDS_P2;PMS_P1;PMS_P2;Temp;Humidity;BMP_temperature;BMP_pressure;BME280_temperature;BME280_humidity;BME280_pressure;Samples;Min_cycle;Max_cycle;Signal;HPM_P1;HPM_P2
2021/08/29 00:01:50;;;;;;;5.57;2.55;;;12.50;99.90;;;;;;4893167;29;20447;-68
2021/08/29 00:04:18;;;;;;;3.47;2.45;;;12.50;99.90;;;;;;4894603;29;20104;-68
2021/08/29 00:06:45;;;;;;;4.18;2.88;;;12.50;99.90;;;;;;4894748;29;20139;-68
2021/08/29 00:09:12;;;;;;;6.80;3.08;;;12.50;99.90;;;;;;4877951;29;20044;-68
2021/08/29 00:11:40;;;;;;;4.50;3.13;;;12.50;99.90;;;;;;4893136;29;20079;-68
2021/08/29 00:14:08;;;;;;;5.18;3.10;;;12.50;99.90;;;;;;4894221;29;20431;-68
2021/08/29 00:16:35;;;;;;;5.20;3.38;;;12.50;99.90;;;;;;4877831;29;20418;-69
2021/08/29 00:19:03;;;;;;;7.43;2.85;;;12.50;99.90;;;;;;4877247;29;20533;-69
2021/08/29 00:21:31;;;;;;;5.50;2.83;;;12.50;99.90;;;;;;4893295;29;20072;-69
2021/08/29 00:23:58;;;;;;;4.78;3.17;;;12.50;99.90;;;;;;4893611;29;20056;-69
2021/08/29 00:26:26;;;;;;;5.75;3.20;;;12.50;99.90;;;;;;4892264;29;20045;-69
2021/08/29 00:28:54;;;;;;;4.55;2.95;;;12.50;99.90;;;;;;4893002;29;20436;-69
2021/08/29 00:31:24;;;;;;;6.00;3.13;;;12.50;99.90;;;;;;4897292;29;20044;-69
2021/08/29 00:33:51;;;;;;;4.55;2.80;;;12.40;99.90;;;;;;4897079;29;20492;-69
2021/08/29 00:36:18;;;;;;;4.05;3.03;;;12.40;99.90;;;;;;4892258;29;20076;-68
2021/08/29 00:38:46;;;;;;;5.35;3.08;;;12.40;99.90;;;;;;4892832;29;20052;-68
2021/08/29 00:41:13;;;;;;;5.47;3.40;;;12.40;99.90;;;;;;4892173;29;20464;-68
2021/08/29 00:43:41;;;;;;;4.13;2.85;;;12.30;99.90;;;;;;4892993;29;20059;-69
2021/08/29 00:46:09;;;;;;;5.00;3.20;;;12.30;99.90;;;;;;4893889;29;20147;-68
2021/08/29 00:48:37;;;;;;;5.78;3.30;;;12.30;99.90;;;;;;4894328;29;20464;-68
2021/08/29 00:51:06;;;;;;;4.60;2.72;;;12.30;99.90;;;;;;4876460;29;20511;-68
2021/08/29 00:53:34;;;;;;;4.90;2.97;;;12.30;99.90;;;;;;4877026;29;20472;-68
2021/08/29 00:56:02;;;;;;;5.38;3.28;;;12.30;99.90;;;;;;4892317;29;20511;-68
2021/08/29 00:58:31;;;;;;;5.35;3.40;;;12.30;99.90;;;;;;4892090;29;20059;-68
2021/08/29 01:00:59;;;;;;;4.78;3.17;;;12.30;99.90;;;;;;4892801;29;20466;-68
2021/08/29 01:03:35;;;;;;;5.65;3.40;;;12.30;99.90;;;;;;4862319;29;20108;-69
2021/08/29 01:06:23;;;;;;;5.20;3.35;;;12.30;99.90;;;;;;4861439;29;20424;-70
2021/08/29 01:09:12;;;;;;;6.57;2.95;;;12.30;99.90;;;;;;4882905;29;20041;-70
2021/08/29 01:11:46;;;;;;;4.60;3.03;;;12.30;99.90;;;;;;4891285;29;20129;-69
2021/08/29 01:14:23;;;;;;;4.78;2.88;;;12.30;99.90;;;;;;4875869;29;20405;-69
2021/08/29 01:16:57;;;;;;;7.90;4.03;;;12.40;99.90;;;;;;4875724;29;20061;-69
2021/08/29 01:19:49;;;;;;;4.55;2.97;;;12.40;99.90;;;;;;4892298;29;20037;-69
2021/08/29 01:22:17;;;;;;;4.47;2.90;;;12.40;99.90;;;;;;4860897;29;20502;-69
2021/08/29 01:24:46;;;;;;;5.32;3.20;;;12.40;99.90;;;;;;4892256;29;20044;-69
2021/08/29 01:27:25;;;;;;;4.95;3.35;;;12.40;99.90;;;;;;4890789;29;20135;-69
2021/08/29 01:29:55;;;;;;;5.68;3.33;;;12.50;99.90;;;;;;4880251;29;20048;-69
2021/08/29 01:32:23;;;;;;;5.10;3.50;;;12.50;99.90;;;;;;4902282;29;20047;-69
2021/08/29 01:34:53;;;;;;;5.53;3.42;;;12.60;99.90;;;;;;4908222;29;20069;-69
2021/08/29 01:37:24;;;;;;;5.07;3.25;;;12.60;99.90;;;;;;4889665;29;20571;-69
2021/08/29 01:39:54;;;;;;;4.60;3.40;;;12.60;99.90;;;;;;4868793;29;20045;-70
2021/08/29 01:42:25;;;;;;;5.13;3.92;;;12.60;99.90;;;;;;4886120;29;20128;-68
2021/08/29 01:44:53;;;;;;;7.07;3.50;;;12.60;99.90;;;;;;4896919;29;20052;-68
2021/08/29 01:47:22;;;;;;;5.70;3.40;;;12.60;99.90;;;;;;4889950;29;20127;-68
2021/08/29 01:49:50;;;;;;;4.80;3.10;;;12.60;99.90;;;;;;4892175;29;20036;-68
2021/08/29 01:52:17;;;;;;;4.95;3.50;;;12.60;99.90;;;;;;4876458;29;20108;-68
2021/08/29 01:55:05;;;;;;;5.43;3.60;;;12.70;99.90;;;;;;4892661;29;20048;-68
2021/08/29 01:57:55;;;;;;;4.65;3.05;;;12.70;99.90;;;;;;4891274;29;20559;-68
2021/08/29 02:00:39;;;;;;;5.22;3.20;;;12.70;99.90;;;;;;4881925;29;20108;-68
2021/08/29 02:03:07;;;;;;;8.05;4.20;;;12.70;99.90;;;;;;4896211;29;20057;-68
2021/08/29 02:05:35;;;;;;;5.30;3.78;;;12.70;99.90;;;;;;4894691;29;20037;-68
2021/08/29 02:08:03;;;;;;;5.60;3.72;;;12.70;99.90;;;;;;4897004;29;20053;-68
2021/08/29 02:10:36;;;;;;;5.10;3.60;;;12.70;99.90;;;;;;4894966;29;20555;-68
2021/08/29 02:13:23;;;;;;;5.18;3.38;;;12.70;99.90;;;;;;4874789;29;20448;-68
2021/08/29 02:16:10;;;;;;;5.63;3.92;;;12.70;99.90;;;;;;4873280;29;20044;-69
2021/08/29 02:18:42;;;;;;;5.97;3.60;;;12.60;99.90;;;;;;4859341;29;20693;-68
2021/08/29 02:21:13;;;;;;;4.93;3.42;;;12.70;99.90;;;;;;4894070;29;20056;-68
2021/08/29 02:23:45;;;;;;;8.57;4.60;;;12.70;99.90;;;;;;4893761;29;20044;-68
2021/08/29 02:26:14;;;;;;;4.80;3.60;;;12.60;99.90;;;;;;4895064;29;20073;-68
2021/08/29 02:28:43;;;;;;;6.05;3.97;;;12.60;99.90;;;;;;4894129;29;20127;-68
2021/08/29 02:31:12;;;;;;;4.90;3.13;;;12.60;99.90;;;;;;4898301;29;20122;-68
2021/08/29 02:33:39;;;;;;;5.32;3.90;;;12.60;99.90;;;;;;4896873;29;20057;-68
2021/08/29 02:36:07;;;;;;;6.68;4.30;;;12.60;99.90;;;;;;4906297;29;20427;-69
2021/08/29 02:38:48;;;;;;;8.07;3.83;;;12.60;99.90;;;;;;4909922;29;20049;-69
2021/08/29 02:41:17;;;;;;;5.82;4.32;;;12.60;99.90;;;;;;4895063;29;20036;-69
2021/08/29 02:43:47;;;;;;;5.88;3.90;;;12.50;99.90;;;;;;4875537;29;20049;-68
2021/08/29 02:46:14;;;;;;;5.60;3.97;;;12.50;99.90;;;;;;4895385;29;20106;-68
2021/08/29 02:48:44;;;;;;;6.28;4.75;;;12.50;99.90;;;;;;4900954;29;20128;-69
2021/08/29 02:51:14;;;;;;;6.57;4.50;;;12.50;99.90;;;;;;4896050;29;20092;-69
2021/08/29 02:53:44;;;;;;;7.40;4.75;;;12.50;99.90;;;;;;4910078;29;20053;-69
2021/08/29 02:56:13;;;;;;;5.47;3.75;;;12.50;99.90;;;;;;4894423;29;20063;-69
2021/08/29 02:58:41;;;;;;;5.95;4.28;;;12.50;99.90;;;;;;4894122;29;20157;-69
2021/08/29 03:01:22;;;;;;;7.03;4.20;;;12.50;99.90;;;;;;4876073;29;20196;-69
2021/08/29 03:03:59;;;;;;;7.90;4.80;;;12.60;99.90;;;;;;4881663;29;20063;-69
2021/08/29 03:06:29;;;;;;;6.18;4.70;;;12.60;99.90;;;;;;4909434;29;20439;-69
2021/08/29 03:08:57;;;;;;;6.57;3.95;;;12.70;99.90;;;;;;4891715;29;20455;-69
2021/08/29 03:11:25;;;;;;;7.47;4.50;;;12.70;99.90;;;;;;4877324;29;20044;-69
2021/08/29 03:13:53;;;;;;;7.60;3.70;;;12.70;99.90;;;;;;4893399;29;20041;-69
2021/08/29 03:16:22;;;;;;;5.60;3.90;;;12.70;99.90;;;;;;4893879;29;20044;-69
2021/08/29 03:18:50;;;;;;;5.57;4.00;;;12.70;99.90;;;;;;4894916;29;20053;-69
2021/08/29 03:21:36;;;;;;;6.50;4.18;;;12.70;99.90;;;;;;4882245;29;20040;-69
2021/08/29 03:24:05;;;;;;;11.00;4.45;;;12.80;99.90;;;;;;4891461;29;20226;-69
2021/08/29 03:26:33;;;;;;;7.85;4.53;;;12.80;99.90;;;;;;4892856;29;20522;-69
2021/08/29 03:29:15;;;;;;;8.02;3.85;;;12.80;99.90;;;;;;4889971;29;20069;-69
2021/08/29 03:31:43;;;;;;;6.82;4.32;;;12.80;99.90;;;;;;4875909;29;20040;-69
2021/08/29 03:34:13;;;;;;;7.53;4.22;;;12.90;99.90;;;;;;4896034;29;20044;-69
2021/08/29 03:36:43;;;;;;;6.10;4.03;;;12.90;99.90;;;;;;4896021;29;20419;-69
2021/08/29 03:39:14;;;;;;;10.15;4.50;;;12.90;99.90;;;;;;4906448;29;20389;-70
2021/08/29 03:41:44;;;;;;;5.90;4.25;;;12.90;99.90;;;;;;4893323;29;20048;-69
2021/08/29 03:44:14;;;;;;;7.57;3.85;;;12.90;99.90;;;;;;4876882;29;20052;-69
2021/08/29 03:46:44;;;;;;;6.10;4.07;;;12.90;99.90;;;;;;4892254;29;20575;-69
2021/08/29 03:49:26;;;;;;;5.72;4.15;;;12.90;99.90;;;;;;4891948;29;20495;-69
2021/08/29 03:51:55;;;;;;;5.80;4.47;;;12.80;99.90;;;;;;4892332;29;20059;-69
2021/08/29 03:54:26;;;;;;;6.28;4.93;;;12.80;99.90;;;;;;4875599;29;20040;-69
2021/08/29 03:56:54;;;;;;;8.43;4.85;;;12.80;99.90;;;;;;4892978;29;20423;-69
2021/08/29 03:59:22;;;;;;;7.35;3.95;;;12.70;99.90;;;;;;4884378;29;20087;-69
2021/08/29 04:01:50;;;;;;;6.25;4.88;;;12.70;99.90;;;;;;4897054;29;20148;-69
2021/08/29 04:04:18;;;;;;;6.75;4.85;;;12.70;99.90;;;;;;4891939;29;20045;-69
2021/08/29 04:06:49;;;;;;;6.82;5.00;;;12.70;99.90;;;;;;4892843;29;20067;-69
2021/08/29 04:09:22;;;;;;;6.10;4.32;;;12.60;99.90;;;;;;4873015;29;20120;-69
2021/08/29 04:11:51;;;;;;;6.50;4.23;;;12.70;99.90;;;;;;4887629;29;20751;-69
2021/08/29 04:14:26;;;;;;;6.63;4.72;;;12.70;99.90;;;;;;4892359;29;20299;-69
2021/08/29 04:16:56;;;;;;;6.60;4.75;;;12.70;99.90;;;;;;4876412;29;20075;-69
2021/08/29 04:19:47;;;;;;;8.65;5.00;;;12.80;99.90;;;;;;4872132;29;20373;-69
2021/08/29 04:22:15;;;;;;;6.22;4.50;;;12.80;99.90;;;;;;4891771;29;20049;-69
2021/08/29 04:24:43;;;;;;;6.88;4.65;;;12.80;99.90;;;;;;4874248;29;20053;-69
2021/08/29 04:27:11;;;;;;;7.78;5.10;;;12.80;99.90;;;;;;4888212;29;20123;-69
2021/08/29 04:29:40;;;;;;;6.88;4.47;;;12.80;99.90;;;;;;4891675;29;20052;-69
2021/08/29 04:32:10;;;;;;;6.45;4.93;;;12.80;99.90;;;;;;4898413;29;20052;-68
2021/08/29 04:34:38;;;;;;;8.45;5.35;;;12.80;99.90;;;;;;4889446;29;20362;-69
2021/08/29 04:37:12;;;;;;;6.72;5.20;;;12.80;99.90;;;;;;4877032;29;20047;-67
2021/08/29 04:39:46;;;;;;;8.73;5.55;;;12.80;99.90;;;;;;4892485;29;20048;-67
2021/08/29 04:42:16;;;;;;;9.75;5.60;;;12.90;99.90;;;;;;4891212;29;20081;-67
2021/08/29 04:44:44;;;;;;;7.53;4.80;;;12.90;99.90;;;;;;4890953;29;20135;-67
2021/08/29 04:47:11;;;;;;;8.13;5.63;;;12.90;99.90;;;;;;4884884;29;20036;-67
2021/08/29 04:49:43;;;;;;;6.80;4.97;;;12.90;99.90;;;;;;4891204;29;20577;-68
2021/08/29 04:52:18;;;;;;;7.40;4.65;;;12.90;99.90;;;;;;4893092;29;20048;-68
2021/08/29 04:54:45;;;;;;;8.48;5.50;;;13.00;99.90;;;;;;4891031;29;20048;-68
2021/08/29 04:57:13;;;;;;;8.10;4.82;;;13.00;99.90;;;;;;4891565;29;20464;-68
2021/08/29 04:59:42;;;;;;;7.68;5.82;;;13.10;99.90;;;;;;4892957;29;20147;-68
2021/08/29 05:02:09;;;;;;;6.93;5.30;;;13.00;99.90;;;;;;4892621;29;20136;-68
2021/08/29 05:04:37;;;;;;;9.98;5.18;;;13.00;99.90;;;;;;4892310;29;20136;-68
2021/08/29 05:07:05;;;;;;;12.85;6.53;;;13.10;99.90;;;;;;4892515;29;20045;-68
2021/08/29 05:09:34;;;;;;;10.75;5.72;;;13.10;99.90;;;;;;4892131;29;20587;-68
2021/08/29 05:12:02;;;;;;;9.10;6.38;;;13.10;99.90;;;;;;4892635;29;20404;-68
2021/08/29 05:14:29;;;;;;;9.32;6.05;;;13.00;99.90;;;;;;4891860;29;20055;-68
2021/08/29 05:16:57;;;;;;;7.90;5.82;;;13.00;99.90;;;;;;4892455;29;20048;-68
2021/08/29 05:19:26;;;;;;;9.07;6.50;;;12.90;99.90;;;;;;4891947;29;20036;-68
2021/08/29 05:22:05;;;;;;;7.65;6.03;;;12.80;99.90;;;;;;4892188;29;20072;-68
2021/08/29 05:24:46;;;;;;;8.98;7.22;;;12.80;99.90;;;;;;4889922;29;20152;-68
2021/08/29 05:27:15;;;;;;;9.18;6.88;;;12.90;99.90;;;;;;4870767;29;20053;-68
2021/08/29 05:29:49;;;;;;;8.93;6.35;;;12.80;99.90;;;;;;4893119;29;20439;-68
2021/08/29 05:32:16;;;;;;;9.23;6.85;;;12.80;99.90;;;;;;4910346;29;20499;-68
2021/08/29 05:34:43;;;;;;;10.65;6.38;;;12.80;99.90;;;;;;4879554;29;20055;-68
2021/08/29 05:37:14;;;;;;;7.75;5.72;;;12.80;99.90;;;;;;4906227;29;20078;-69
2021/08/29 05:40:00;;;;;;;8.13;6.00;;;12.80;99.90;;;;;;4895248;29;20176;-69
2021/08/29 05:42:36;;;;;;;8.13;6.10;;;12.80;99.90;;;;;;4897223;29;20145;-69
2021/08/29 05:45:09;;;;;;;8.30;6.30;;;12.90;99.90;;;;;;4894683;29;20123;-69
2021/08/29 05:47:37;;;;;;;8.35;6.03;;;12.90;99.90;;;;;;4863865;29;20049;-69
2021/08/29 05:50:05;;;;;;;8.93;6.72;;;12.90;99.90;;;;;;4879665;29;20055;-69
2021/08/29 05:52:38;;;;;;;9.65;6.07;;;13.00;99.90;;;;;;4881139;29;20037;-69
2021/08/29 05:55:06;;;;;;;12.90;7.10;;;13.10;99.90;;;;;;4894979;29;20172;-69
2021/08/29 05:57:34;;;;;;;10.45;6.80;;;13.10;99.90;;;;;;4893442;29;20436;-69
2021/08/29 06:00:03;;;;;;;11.85;7.00;;;13.10;99.90;;;;;;4907456;29;20486;-69
2021/08/29 06:02:41;;;;;;;10.27;6.65;;;13.10;99.90;;;;;;4894083;29;20597;-69
2021/08/29 06:05:08;;;;;;;9.70;6.93;;;13.10;99.90;;;;;;4912606;29;20485;-69
2021/08/29 06:07:51;;;;;;;9.63;7.40;;;13.10;99.90;;;;;;4880569;29;20447;-69
2021/08/29 06:10:19;;;;;;;7.75;6.20;;;13.20;99.90;;;;;;4880111;29;20076;-69
2021/08/29 06:12:46;;;;;;;8.75;6.60;;;13.20;99.90;;;;;;4896110;29;20044;-69
2021/08/29 06:15:13;;;;;;;7.93;5.55;;;13.30;99.90;;;;;;4886367;29;20475;-69
2021/08/29 06:17:41;;;;;;;8.55;6.32;;;13.30;99.90;;;;;;4892438;29;20056;-69
2021/08/29 06:20:10;;;;;;;10.48;6.55;;;13.40;99.90;;;;;;4889577;29;20148;-69
2021/08/29 06:22:37;;;;;;;8.73;5.97;;;13.50;99.90;;;;;;4906421;29;20154;-69
2021/08/29 06:25:23;;;;;;;8.65;6.57;;;13.60;99.90;;;;;;4895221;29;20051;-69
2021/08/29 06:28:10;;;;;;;8.82;6.70;;;13.60;99.90;;;;;;4894455;29;20647;-69
2021/08/29 06:30:56;;;;;;;7.38;5.57;;;13.60;99.90;;;;;;4890278;29;20049;-68
2021/08/29 06:33:42;;;;;;;9.35;6.53;;;13.70;99.90;;;;;;4894812;29;20048;-68
2021/08/29 06:36:15;;;;;;;8.07;5.50;;;13.80;99.90;;;;;;4891642;29;20523;-68
2021/08/29 06:38:43;;;;;;;11.15;6.47;;;13.80;99.90;;;;;;4894205;29;20060;-68
2021/08/29 06:41:10;;;;;;;7.22;4.75;;;13.90;99.90;;;;;;4893645;29;20037;-68
2021/08/29 06:43:37;;;;;;;6.55;4.95;;;13.90;99.90;;;;;;4895762;29;20075;-68
2021/08/29 06:46:24;;;;;;;9.38;5.97;;;14.00;99.90;;;;;;4896195;29;20069;-68
2021/08/29 06:49:10;;;;;;;7.15;5.60;;;14.10;99.90;;;;;;4894349;29;20400;-68
2021/08/29 06:51:40;;;;;;;7.70;5.65;;;14.20;99.90;;;;;;4895168;29;20047;-68
2021/08/29 06:54:46;;;;;;;7.55;5.57;;;14.40;99.90;;;;;;4873668;29;20386;-68
2021/08/29 06:57:33;;;;;;;6.55;4.90;;;14.60;99.90;;;;;;4873705;29;20445;-68
2021/08/29 07:00:00;;;;;;;7.25;5.15;;;14.90;99.90;;;;;;4873915;29;20060;-68
2021/08/29 07:02:29;;;;;;;5.78;4.45;;;15.20;99.90;;;;;;4843457;29;20421;-68
2021/08/29 07:04:56;;;;;;;8.13;5.18;;;15.40;99.90;;;;;;4858302;29;20060;-68
2021/08/29 07:07:24;;;;;;;5.55;4.22;;;15.60;99.90;;;;;;4858331;29;20053;-68
2021/08/29 07:10:06;;;;;;;5.07;3.42;;;15.70;99.90;;;;;;4855849;29;20587;-68
2021/08/29 07:12:47;;;;;;;6.03;4.60;;;15.70;99.90;;;;;;4859152;29;20045;-68
2021/08/29 07:15:23;;;;;;;6.70;3.97;;;15.80;99.90;;;;;;4874333;29;20132;-68
2021/08/29 07:17:52;;;;;;;5.70;4.00;;;15.80;99.90;;;;;;4858767;29;20123;-68
2021/08/29 07:20:42;;;;;;;4.68;3.05;;;15.80;99.90;;;;;;4874430;29;20069;-68
2021/08/29 07:23:29;;;;;;;7.38;4.53;;;15.90;99.90;;;;;;4874241;29;20052;-69
2021/08/29 07:26:16;;;;;;;6.38;4.20;;;16.00;99.90;;;;;;4883195;29;20064;-69
2021/08/29 07:29:02;;;;;;;6.13;3.40;;;16.10;99.90;;;;;;4896750;29;20122;-69
2021/08/29 07:31:48;;;;;;;6.15;4.43;;;16.10;99.90;;;;;;4873616;29;20051;-69
2021/08/29 07:34:16;;;;;;;4.18;2.83;;;16.10;99.90;;;;;;4893594;29;20507;-69
2021/08/29 07:37:07;;;;;;;4.57;2.80;;;16.10;99.90;;;;;;4879388;29;20128;-69
2021/08/29 07:39:35;;;;;;;3.95;2.45;;;16.30;99.90;;;;;;4908564;29;20053;-69
2021/08/29 07:42:02;;;;;;;2.92;2.00;;;16.30;99.90;;;;;;4887285;29;20048;-69
2021/08/29 07:44:29;;;;;;;3.50;2.10;;;16.50;99.90;;;;;;4893482;29;20048;-69
2021/08/29 07:46:57;;;;;;;3.97;1.75;;;16.60;99.90;;;;;;4893766;29;20132;-69
2021/08/29 07:49:24;;;;;;;3.10;1.58;;;16.80;99.90;;;;;;4893553;29;20503;-69
2021/08/29 07:51:51;;;;;;;4.68;2.30;;;16.80;99.90;;;;;;4876959;29;20049;-69
2021/08/29 07:54:38;;;;;;;3.88;2.10;;;16.90;99.90;;;;;;4894989;29;20064;-69
2021/08/29 07:57:40;;;;;;;2.83;1.70;;;16.80;99.90;;;;;;4893998;29;20044;-68
2021/08/29 08:00:15;;;;;;;3.88;1.80;;;16.90;99.90;;;;;;4892376;29;20124;-68
2021/08/29 08:02:52;;;;;;;2.75;1.85;;;17.00;99.90;;;;;;4877678;29;20415;-68
2021/08/29 08:05:46;;;;;;;8.02;4.55;;;17.00;99.90;;;;;;4872778;29;20326;-69
2021/08/29 08:08:32;;;;;;;6.10;3.95;;;17.10;99.90;;;;;;4891915;29;20044;-69
2021/08/29 08:11:18;;;;;;;4.78;2.60;;;17.10;99.90;;;;;;4892056;29;20045;-69
2021/08/29 08:13:46;;;;;;;7.00;2.50;;;16.90;99.90;;;;;;4892283;29;20144;-69
2021/08/29 08:16:14;;;;;;;3.05;1.85;;;16.90;99.90;;;;;;4892041;29;20778;-69
2021/08/29 08:18:42;;;;;;;3.42;2.15;;;16.90;99.90;;;;;;4890963;29;20504;-69
2021/08/29 08:21:09;;;;;;;5.53;2.08;;;17.10;99.90;;;;;;4892862;29;20531;-69
2021/08/29 08:23:46;;;;;;;3.60;2.30;;;17.10;99.90;;;;;;4893642;29;20558;-69
2021/08/29 08:26:34;;;;;;;2.85;1.80;;;17.40;99.90;;;;;;4892158;29;20064;-69
2021/08/29 08:29:20;;;;;;;3.92;2.03;;;17.80;99.90;;;;;;4893537;29;20044;-69
2021/08/29 08:32:06;;;;;;;3.80;2.20;;;18.00;99.90;;;;;;4895713;29;20539;-69
2021/08/29 08:34:49;;;;;;;4.30;2.20;;;17.80;99.90;;;;;;4893324;29;20045;-69
2021/08/29 08:37:42;;;;;;;12.45;7.85;;;17.80;99.90;;;;;;4905112;29;20052;-69
2021/08/29 08:40:24;;;;;;;4.47;3.08;;;18.30;99.90;;;;;;4874979;29;20188;-69
2021/08/29 08:42:55;;;;;;;6.05;3.10;;;18.70;99.90;;;;;;4884862;29;20048;-69
2021/08/29 08:46:03;;;;;;;5.47;2.88;;;19.00;99.90;;;;;;4876162;29;20056;-69
2021/08/29 08:48:51;;;;;;;4.07;2.78;;;19.40;99.90;;;;;;4884596;29;20047;-69
2021/08/29 08:51:43;;;;;;;5.05;2.80;;;19.80;99.90;;;;;;4890358;29;20399;-69
2021/08/29 08:54:13;;;;;;;5.72;3.67;;;20.10;99.90;;;;;;4892984;29;20092;-69
2021/08/29 08:57:10;;;;;;;6.03;4.15;;;20.30;99.90;;;;;;4835255;29;20088;-69
2021/08/29 09:00:07;;;;;;;2.97;1.38;;;20.70;99.90;;;;;;4827982;29;20066;-71
2021/08/29 09:02:57;;;;;;;1.95;1.20;;;21.00;99.90;;;;;;4798511;29;20145;-69
2021/08/29 09:05:50;;;;;;;2.28;1.20;;;21.00;99.90;;;;;;4784398;29;20062;-70
2021/08/29 09:08:30;;;;;;;2.50;1.33;;;20.60;99.90;;;;;;4783143;29;20067;-69
2021/08/29 09:10:58;;;;;;;2.05;1.10;;;20.30;99.90;;;;;;4797021;29;20059;-70
2021/08/29 09:13:25;;;;;;;1.38;0.70;;;20.10;99.90;;;;;;4797855;29;20073;-70
2021/08/29 09:16:12;;;;;;;1.63;1.00;;;19.80;99.90;;;;;;4783479;29;20066;-69
2021/08/29 09:18:52;;;;;;;1.52;0.98;;;19.10;99.90;;;;;;4783393;29;20181;-69
2021/08/29 09:21:26;;;;;;;2.45;0.90;;;18.50;99.90;;;;;;4797747;29;20105;-69
2021/08/29 09:23:58;;;;;;;2.97;1.10;;;18.20;99.90;;;;;;4798751;29;20097;-69
2021/08/29 09:26:47;;;;;;;1.90;0.90;;;17.90;99.90;;;;;;4794522;29;20853;-69
2021/08/29 09:29:31;;;;;;;1.52;0.90;;;17.90;99.90;;;;;;4782947;29;20054;-69
2021/08/29 09:32:01;;;;;;;1.90;0.98;;;17.90;99.90;;;;;;4773909;29;20612;-69
2021/08/29 09:34:37;;;;;;;0.70;0.60;;;17.80;99.90;;;;;;4840084;29;20064;-69
2021/08/29 09:37:09;;;;;;;0.85;0.60;;;18.00;99.90;;;;;;4838132;29;20519;-69
2021/08/29 09:40:13;;;;;;;2.40;1.10;;;18.20;99.90;;;;;;4866669;29;20064;-69
2021/08/29 09:43:08;;;;;;;1.10;0.70;;;18.70;99.90;;;;;;4890968;29;20464;-69
2021/08/29 09:45:42;;;;;;;4.57;2.17;;;18.80;99.90;;;;;;4895310;29;20075;-69
2021/08/29 09:48:50;;;;;;;0.77;0.60;;;18.80;99.90;;;;;;4847470;29;20053;-69
2021/08/29 09:51:27;;;;;;;2.17;1.10;;;18.70;99.90;;;;;;4856941;29;20056;-69
2021/08/29 09:53:58;;;;;;;;;;;18.70;99.90;;;;;;4855911;29;20200;-70
2021/08/29 09:56:50;;;;;;;1.48;0.70;;;18.80;99.90;;;;;;4843958;29;19927;-69
2021/08/29 09:59:51;;;;;;;3.20;1.00;;;19.00;99.90;;;;;;4831268;29;20077;-69
2021/08/29 10:02:28;;;;;;;3.63;0.70;;;19.40;99.90;;;;;;4851696;29;20053;-69
2021/08/29 10:05:16;;;;;;;0.88;0.60;;;19.60;99.90;;;;;;4839439;29;20053;-69
2021/08/29 10:08:07;;;;;;;0.68;0.52;;;19.90;99.90;;;;;;4836370;29;20042;-69
2021/08/29 10:10:43;;;;;;;0.73;0.60;;;20.10;99.90;;;;;;4847469;29;20492;-69
2021/08/29 10:13:14;;;;;;;1.33;0.80;;;20.40;99.90;;;;;;4833776;29;20081;-69
2021/08/29 10:15:51;;;;;;;0.70;0.50;;;20.10;99.90;;;;;;4855765;29;20048;-69
2021/08/29 10:18:43;;;;;;;1.92;0.52;;;20.00;99.90;;;;;;4861740;29;20064;-69
2021/08/29 10:21:33;;;;;;;0.47;0.38;;;20.30;99.90;;;;;;4874369;29;20053;-69
2021/08/29 10:24:05;;;;;;;0.68;0.43;;;20.10;99.90;;;;;;4864699;29;20049;-69
2021/08/29 10:26:34;;;;;;;4.30;2.33;;;20.10;99.90;;;;;;4896615;29;20059;-69
2021/08/29 10:29:28;;;;;;;0.52;0.50;;;19.90;99.90;;;;;;4894160;29;20052;-69
2021/08/29 10:32:29;;;;;;;1.08;0.70;;;19.70;99.90;;;;;;4894998;29;20067;-69
2021/08/29 10:35:17;;;;;;;2.10;1.02;;;19.80;99.90;;;;;;4879654;29;20055;-68
2021/08/29 10:37:47;;;;;;;1.75;1.00;;;19.70;99.90;;;;;;4887998;29;20048;-69
2021/08/29 10:40:33;;;;;;;0.75;0.40;;;19.70;99.90;;;;;;4883316;29;20067;-69
2021/08/29 10:43:15;;;;;;;0.95;0.60;;;19.70;99.90;;;;;;4901049;29;20478;-69
2021/08/29 10:46:21;;;;;;;1.05;0.50;;;19.70;99.90;;;;;;4854037;29;20042;-69
2021/08/29 10:49:08;;;;;;;0.47;0.43;;;19.60;99.90;;;;;;4855069;29;20069;-69
2021/08/29 10:51:41;;;;;;;1.05;0.60;;;19.60;99.90;;;;;;4840216;29;20101;-69
2021/08/29 10:54:13;;;;;;;1.35;0.60;;;19.50;99.90;;;;;;4854114;29;20060;-68
2021/08/29 10:56:45;;;;;;;0.65;0.52;;;19.50;99.90;;;;;;4840592;29;20627;-68
2021/08/29 10:59:23;;;;;;;5.32;0.82;;;19.10;99.90;;;;;;4854280;29;20152;-69
2021/08/29 11:02:10;;;;;;;0.77;0.60;;;19.00;99.90;;;;;;4840649;29;20069;-68
2021/08/29 11:05:42;;;;;;;1.55;0.60;;;19.00;99.90;;;;;;4843036;29;20053;-68
2021/08/29 11:08:27;;;;;;;1.45;0.80;;;19.00;99.90;;;;;;4833531;29;20072;-68
2021/08/29 11:10:57;;;;;;;;;;;19.00;99.90;;;;;;4819731;29;20050;-69
2021/08/29 11:13:29;;;;;;;1.13;0.60;;;18.90;99.90;;;;;;4854516;29;19928;-69
2021/08/29 11:16:14;;;;;;;2.55;0.93;;;19.00;99.90;;;;;;4838871;29;20111;-69
2021/08/29 11:19:03;;;;;;;3.25;1.00;;;19.00;99.90;;;;;;4854380;29;20057;-69
2021/08/29 11:21:52;;;;;;;1.50;0.60;;;18.90;99.90;;;;;;4876356;29;20071;-68
2021/08/29 11:24:46;;;;;;;2.95;1.05;;;18.90;99.90;;;;;;4892714;29;20045;-68
2021/08/29 11:27:34;;;;;;;1.15;0.60;;;18.50;99.90;;;;;;4879608;29;20057;-68
2021/08/29 11:30:24;;;;;;;0.95;0.68;;;18.40;99.90;;;;;;4902967;29;20044;-68
2021/08/29 11:32:52;;;;;;;1.25;0.75;;;18.30;99.90;;;;;;4903123;29;20076;-68
2021/08/29 11:35:21;;;;;;;0.80;0.60;;;18.20;99.90;;;;;;4892425;29;20052;-67
2021/08/29 11:38:33;;;;;;;1.10;0.50;;;18.10;99.90;;;;;;4885478;29;20053;-68
2021/08/29 11:41:15;;;;;;;2.05;0.90;;;17.80;99.90;;;;;;4880161;29;20061;-68
2021/08/29 11:43:46;;;;;;;1.08;0.60;;;17.90;99.90;;;;;;4881632;29;20558;-69
2021/08/29 11:46:22;;;;;;;2.03;0.70;;;17.80;99.90;;;;;;4861985;29;20057;-68
2021/08/29 11:49:13;;;;;;;0.93;0.55;;;17.80;99.90;;;;;;4859307;29;20055;-68
2021/08/29 11:51:50;;;;;;;1.92;0.70;;;17.90;99.90;;;;;;4856157;29;20129;-68
2021/08/29 11:54:20;;;;;;;1.45;0.68;;;18.20;99.90;;;;;;4901023;29;20575;-68
2021/08/29 11:57:00;;;;;;;1.48;0.70;;;18.20;99.90;;;;;;4890069;29;20045;-68
2021/08/29 11:59:33;;;;;;;1.88;0.60;;;18.20;99.90;;;;;;4875110;29;20112;-67
2021/08/29 12:02:12;;;;;;;1.75;0.88;;;18.30;99.90;;;;;;4892156;29;20048;-68
2021/08/29 12:04:53;;;;;;;1.45;0.60;;;18.20;99.90;;;;;;4878940;29;20044;-68
2021/08/29 12:08:01;;;;;;;0.73;0.50;;;18.20;99.90;;;;;;4885128;29;20618;-68
2021/08/29 12:10:51;;;;;;;1.13;0.45;;;18.40;99.90;;;;;;4890296;29;20358;-67
2021/08/29 12:13:37;;;;;;;0.73;0.50;;;18.40;99.90;;;;;;4889897;29;20176;-67
2021/08/29 12:16:24;;;;;;;1.27;0.60;;;18.20;99.90;;;;;;4892800;29;20059;-69
2021/08/29 12:18:56;;;;;;;2.95;1.40;;;18.30;99.90;;;;;;4889200;29;20052;-69
2021/08/29 12:21:47;;;;;;;1.45;0.70;;;18.30;99.90;;;;;;4876483;29;20570;-69
2021/08/29 12:24:41;;;;;;;2.63;1.23;;;18.50;99.90;;;;;;4890145;29;20044;-69
2021/08/29 12:27:15;;;;;;;1.55;0.47;;;18.50;99.90;;;;;;4908660;29;20508;-69
2021/08/29 12:29:48;;;;;;;0.95;0.43;;;18.40;99.90;;;;;;4874479;29;20087;-69
2021/08/29 12:32:19;;;;;;;2.28;0.68;;;18.30;99.90;;;;;;4876677;29;20051;-68
2021/08/29 12:35:02;;;;;;;0.90;0.50;;;18.10;99.90;;;;;;4892117;29;20044;-68
2021/08/29 12:37:33;;;;;;;1.83;0.50;;;18.00;99.90;;;;;;4902181;29;20058;-69
2021/08/29 12:40:12;;;;;;;0.50;0.40;;;17.90;99.90;;;;;;4891120;29;20170;-68
2021/08/29 12:42:44;;;;;;;0.68;0.30;;;18.00;99.90;;;;;;4904470;29;20531;-68
2021/08/29 12:45:27;;;;;;;0.40;0.40;;;17.80;99.90;;;;;;4876421;29;20055;-68
2021/08/29 12:47:55;;;;;;;0.50;0.40;;;17.80;99.90;;;;;;4891288;29;20399;-67
2021/08/29 12:50:22;;;;;;;1.02;0.40;;;17.70;99.90;;;;;;4891758;29;20044;-68
2021/08/29 12:52:54;;;;;;;0.75;0.50;;;17.50;99.90;;;;;;4892304;29;20043;-69
2021/08/29 12:55:24;;;;;;;0.65;0.40;;;17.50;99.90;;;;;;4892299;29;20408;-68
2021/08/29 12:57:59;;;;;;;1.40;0.50;;;17.50;99.90;;;;;;4899798;29;20065;-68
2021/08/29 13:00:36;;;;;;;0.40;0.30;;;17.50;99.90;;;;;;4887945;29;20135;-68
2021/08/29 13:03:04;;;;;;;3.40;1.08;;;17.40;99.90;;;;;;4892475;29;20139;-68
2021/08/29 13:05:40;;;;;;;1.40;0.63;;;17.50;99.90;;;;;;4891409;29;20136;-68
2021/08/29 13:08:08;;;;;;;0.82;0.50;;;17.80;99.90;;;;;;4887092;29;20535;-68
2021/08/29 13:10:36;;;;;;;1.08;0.55;;;18.10;99.90;;;;;;4881457;29;20051;-68
2021/08/29 13:13:12;;;;;;;1.20;0.50;;;18.40;99.90;;;;;;4906001;29;20437;-68
2021/08/29 13:15:42;;;;;;;0.75;0.40;;;18.80;99.90;;;;;;4892617;29;20398;-68
2021/08/29 13:18:10;;;;;;;4.15;1.80;;;18.80;99.90;;;;;;4891048;29;20048;-68
2021/08/29 13:20:41;;;;;;;0.90;0.55;;;18.70;99.90;;;;;;4890979;29;20048;-68
2021/08/29 13:23:33;;;;;;;0.40;0.40;;;18.60;99.90;;;;;;4888515;29;20044;-68
2021/08/29 13:26:03;;;;;;;0.50;0.43;;;18.40;99.90;;;;;;4886097;29;20053;-68
2021/08/29 13:28:31;;;;;;;1.33;0.52;;;18.20;99.90;;;;;;4891641;29;20048;-68
2021/08/29 13:31:05;;;;;;;0.60;0.40;;;18.20;99.90;;;;;;4893412;29;20045;-68
2021/08/29 13:33:34;;;;;;;0.85;0.60;;;18.00;99.90;;;;;;4886164;29;20044;-68